Time;durP1;ratioP1;P1;durP2;ratioP2;P2;SDS_P1;SDS_P2;PMS_P1;PMS_P2;Temp;Humidity;BMP_temperature;BMP_pressure;BME280_temperature;BME280_humidity;BME280_pressure;Samples;Min_cycle;Max_cycle;Signal;HPM_P1;HPM_P2
2021/10/11 00:00:56;;;;;;;11.88;4.60;;;14.40;57.90;;;;;;6198656;28;20046;-75
2021/10/11 00:03:57;;;;;;;12.40;5.65;;;14.50;58.00;;;;;;6199708;28;20482;-78
2021/10/11 00:06:57;;;;;;;17.17;5.50;;;14.40;57.90;;;;;;6194777;28;20042;-75
2021/10/11 00:09:59;;;;;;;10.43;5.25;;;14.40;58.00;;;;;;6197553;28;20034;-76
2021/10/11 00:13:00;;;;;;;13.80;6.30;;;14.40;58.00;;;;;;6197610;28;20045;-75
2021/10/11 00:16:01;;;;;;;10.73;4.88;;;14.40;58.00;;;;;;6198077;28;20042;-75
2021/10/11 00:19:04;;;;;;;8.52;4.75;;;14.40;58.10;;;;;;6181062;28;20121;-75
2021/10/11 00:22:05;;;;;;;10.90;4.65;;;14.40;58.00;;;;;;6198383;28;20045;-76
2021/10/11 00:25:07;;;;;;;8.90;4.80;;;14.40;58.10;;;;;;6198764;28;20455;-76
2021/10/11 00:28:08;;;;;;;16.20;5.40;;;14.30;58.10;;;;;;6196675;28;20034;-76
2021/10/11 00:31:10;;;;;;;9.25;5.15;;;14.30;58.20;;;;;;6197313;28;20035;-76
2021/10/11 00:34:12;;;;;;;13.15;5.32;;;14.30;58.20;;;;;;6198569;28;20037;-76
2021/10/11 00:37:13;;;;;;;14.30;5.63;;;14.30;58.20;;;;;;6198720;28;20035;-78
2021/10/11 00:40:14;;;;;;;11.77;5.80;;;14.30;58.20;;;;;;6196702;28;20035;-77
2021/10/11 00:43:14;;;;;;;13.93;5.88;;;14.30;58.20;;;;;;6198129;28;20463;-76
2021/10/11 00:46:15;;;;;;;12.07;6.25;;;14.30;58.30;;;;;;6199071;28;20427;-76
2021/10/11 00:49:16;;;;;;;12.68;5.90;;;14.40;58.30;;;;;;6196097;28;20464;-77
2021/10/11 00:52:17;;;;;;;16.88;6.00;;;14.30;58.20;;;;;;6194552;28;20035;-76
2021/10/11 00:55:20;;;;;;;13.48;5.55;;;14.30;58.30;;;;;;6197130;28;20026;-76
2021/10/11 00:58:21;;;;;;;12.65;6.32;;;14.30;58.00;;;;;;6201113;28;20034;-77
2021/10/11 01:01:21;;;;;;;11.85;5.50;;;14.30;58.30;;;;;;6212791;28;20042;-77
2021/10/11 01:04:22;;;;;;;14.15;5.85;;;14.30;58.20;;;;;;6207293;28;20046;-77
2021/10/11 01:07:24;;;;;;;10.38;5.57;;;14.30;58.20;;;;;;6198522;28;20062;-77
2021/10/11 01:10:25;;;;;;;12.55;5.82;;;14.30;58.40;;;;;;6197734;28;20088;-77
2021/10/11 01:13:26;;;;;;;10.73;5.68;;;14.20;58.50;;;;;;6195256;28;20039;-77
2021/10/11 01:16:27;;;;;;;12.32;5.65;;;14.20;58.60;;;;;;6173542;28;20469;-76
2021/10/11 01:19:28;;;;;;;9.90;5.07;;;14.10;58.70;;;;;;6179745;28;20048;-76
2021/10/11 01:22:37;;;;;;;16.95;6.15;;;14.10;58.70;;;;;;6197703;28;20066;-77
2021/10/11 01:25:38;;;;;;;10.10;5.28;;;14.10;58.60;;;;;;6196708;28;20411;-77
2021/10/11 01:28:39;;;;;;;16.58;5.63;;;14.20;58.60;;;;;;6192102;28;20041;-77
2021/10/11 01:31:42;;;;;;;13.02;5.60;;;14.20;58.60;;;;;;6196433;28;20030;-77
2021/10/11 01:34:43;;;;;;;13.60;5.45;;;14.20;58.70;;;;;;6196601;28;20034;-77
2021/10/11 01:37:44;;;;;;;10.07;5.03;;;14.20;58.70;;;;;;6180553;28;20379;-77
2021/10/11 01:40:46;;;;;;;10.50;5.43;;;14.10;58.80;;;;;;6210978;28;20100;-77
2021/10/11 01:43:47;;;;;;;12.20;5.10;;;14.10;58.90;;;;;;6175524;28;20042;-77
2021/10/11 01:46:48;;;;;;;9.38;4.55;;;14.00;59.00;;;;;;6181032;28;20478;-77
2021/10/11 01:49:49;;;;;;;12.23;4.57;;;14.00;59.20;;;;;;6197146;28;20038;-77
2021/10/11 01:52:50;;;;;;;10.95;5.28;;;13.90;59.30;;;;;;6198846;28;20145;-77
2021/10/11 01:55:51;;;;;;;12.07;4.35;;;13.90;59.40;;;;;;6185626;28;20024;-77
2021/10/11 01:58:52;;;;;;;9.68;4.82;;;13.90;59.50;;;;;;6168948;28;20117;-77
2021/10/11 02:01:53;;;;;;;11.75;4.57;;;13.80;59.60;;;;;;6201971;28;20371;-77
2021/10/11 02:04:54;;;;;;;8.55;4.38;;;13.80;59.70;;;;;;6200886;28;20043;-76
2021/10/11 02:07:54;;;;;;;9.57;4.60;;;13.80;59.70;;;;;;6199240;28;20035;-76
2021/10/11 02:10:55;;;;;;;9.45;4.78;;;13.80;59.80;;;;;;6201115;28;20038;-77
2021/10/11 02:13:56;;;;;;;10.85;5.05;;;13.70;59.70;;;;;;6201301;28;20065;-78
2021/10/11 02:16:58;;;;;;;9.80;5.57;;;13.70;59.80;;;;;;6201141;28;20042;-77
2021/10/11 02:19:59;;;;;;;10.82;5.35;;;13.70;59.80;;;;;;6199638;28;20053;-78
2021/10/11 02:23:00;;;;;;;8.65;4.95;;;13.70;60.00;;;;;;6182939;28;20127;-78
2021/10/11 02:26:01;;;;;;;10.77;5.20;;;13.70;60.00;;;;;;6199936;28;20049;-77
2021/10/11 02:29:02;;;;;;;10.20;5.35;;;13.70;60.10;;;;;;6200586;28;20026;-78
2021/10/11 02:32:03;;;;;;;14.18;5.90;;;13.70;60.10;;;;;;6201770;28;20031;-77
2021/10/11 02:35:05;;;;;;;7.63;4.60;;;13.70;60.10;;;;;;6201062;28;20065;-77
2021/10/11 02:38:07;;;;;;;11.52;4.72;;;13.60;60.10;;;;;;6201396;28;20518;-77
2021/10/11 02:41:08;;;;;;;9.93;5.35;;;13.60;60.20;;;;;;6198374;28;20060;-78
2021/10/11 02:44:09;;;;;;;11.00;5.03;;;13.60;60.10;;;;;;6200287;28;20050;-78
2021/10/11 02:47:10;;;;;;;9.90;4.75;;;13.60;60.10;;;;;;6198245;28;20125;-78
2021/10/11 02:50:12;;;;;;;8.77;4.78;;;13.60;61.00;;;;;;6201217;28;20039;-77
2021/10/11 02:53:15;;;;;;;16.38;4.53;;;13.60;60.30;;;;;;6200216;28;20120;-78
2021/10/11 02:56:17;;;;;;;11.70;4.88;;;13.50;60.50;;;;;;6201669;28;20065;-79
2021/10/11 02:59:18;;;;;;;8.85;4.25;;;13.50;60.70;;;;;;6202800;28;20122;-78
2021/10/11 03:02:19;;;;;;;11.27;5.30;;;13.50;60.60;;;;;;6201652;28;20097;-78
2021/10/11 03:05:20;;;;;;;9.68;4.43;;;13.50;60.60;;;;;;6202838;28;20038;-78
2021/10/11 03:08:21;;;;;;;14.95;5.25;;;13.50;60.60;;;;;;6203447;28;20471;-78
2021/10/11 03:11:22;;;;;;;8.63;4.93;;;13.50;60.70;;;;;;6201461;28;20046;-78
2021/10/11 03:14:22;;;;;;;12.65;4.80;;;13.50;61.00;;;;;;6201888;28;20124;-78
2021/10/11 03:17:23;;;;;;;9.55;5.20;;;13.40;60.80;;;;;;6200643;28;20117;-78
2021/10/11 03:20:24;;;;;;;11.38;4.68;;;13.40;61.00;;;;;;6202609;28;20041;-78
2021/10/11 03:23:25;;;;;;;7.10;4.13;;;13.40;60.80;;;;;;6201065;28;20526;-78
2021/10/11 03:26:26;;;;;;;10.90;4.90;;;13.40;60.80;;;;;;6200431;28;20030;-78
2021/10/11 03:29:27;;;;;;;11.93;5.53;;;13.40;60.80;;;;;;6201220;28;20050;-78
2021/10/11 03:32:28;;;;;;;12.88;4.75;;;13.40;60.80;;;;;;6201917;28;20046;-77
2021/10/11 03:35:29;;;;;;;9.25;4.90;;;13.40;60.90;;;;;;6201127;28;20048;-78
2021/10/11 03:38:30;;;;;;;9.48;5.13;;;13.40;60.90;;;;;;6199814;28;20093;-78
2021/10/11 03:41:32;;;;;;;11.27;5.30;;;13.40;60.90;;;;;;6199655;28;20038;-78
2021/10/11 03:44:34;;;;;;;9.93;5.03;;;13.40;60.90;;;;;;6202024;28;20100;-78
2021/10/11 03:47:37;;;;;;;13.38;5.32;;;13.40;60.90;;;;;;6178791;28;20494;-78
2021/10/11 03:50:39;;;;;;;15.18;5.25;;;13.40;61.00;;;;;;6200663;28;20039;-78
2021/10/11 03:53:40;;;;;;;11.07;5.47;;;13.40;61.20;;;;;;6198622;28;20038;-79
2021/10/11 03:56:44;;;;;;;10.88;5.53;;;13.40;61.40;;;;;;6201069;28;20486;-77
2021/10/11 03:59:45;;;;;;;10.52;4.68;;;13.40;61.40;;;;;;6200826;28;20089;-77
2021/10/11 04:02:46;;;;;;;14.52;5.15;;;13.30;61.50;;;;;;6200426;28;20069;-77
2021/10/11 04:05:46;;;;;;;8.93;5.25;;;13.30;61.50;;;;;;6200351;28;20034;-78
2021/10/11 04:08:49;;;;;;;12.85;5.18;;;13.30;61.60;;;;;;6184693;28;20027;-79
2021/10/11 04:11:50;;;;;;;11.85;5.82;;;13.20;61.60;;;;;;6202369;28;20031;-78
2021/10/11 04:14:53;;;;;;;9.73;5.10;;;13.20;61.70;;;;;;6184723;28;20364;-79
2021/10/11 04:17:56;;;;;;;7.43;4.00;;;13.20;61.70;;;;;;6200821;28;20092;-80
2021/10/11 04:20:57;;;;;;;11.05;5.20;;;13.10;61.80;;;;;;6199981;28;20121;-79
2021/10/11 04:23:58;;;;;;;9.85;4.70;;;13.10;61.90;;;;;;6200949;28;20471;-78
2021/10/11 04:26:59;;;;;;;11.77;5.25;;;13.00;62.00;;;;;;6199698;28;20484;-79
2021/10/11 04:30:00;;;;;;;9.75;5.05;;;13.00;62.10;;;;;;6184133;28;20113;-77
2021/10/11 04:33:01;;;;;;;9.90;4.45;;;13.00;62.40;;;;;;6199954;28;20035;-78
2021/10/11 04:36:02;;;;;;;10.38;4.65;;;12.90;62.60;;;;;;6198972;28;20027;-78
2021/10/11 04:39:03;;;;;;;9.43;3.92;;;12.90;62.40;;;;;;6200058;28;21081;-78
2021/10/11 04:42:04;;;;;;;9.07;4.50;;;12.80;62.50;;;;;;6198990;28;20399;-78
2021/10/11 04:45:06;;;;;;;13.90;5.30;;;12.70;62.50;;;;;;6182817;28;20043;-78
2021/10/11 04:48:09;;;;;;;13.35;4.80;;;12.70;62.60;;;;;;6193288;28;20049;-84
2021/10/11 04:51:10;;;;;;;11.48;5.13;;;12.70;62.60;;;;;;6200915;28;20041;-85
2021/10/11 04:54:14;;;;;;;10.57;4.85;;;12.70;62.60;;;;;;6199262;28;20034;-80
2021/10/11 04:57:15;;;;;;;10.52;5.10;;;12.60;62.50;;;;;;6200215;28;20097;-76
2021/10/11 05:00:16;;;;;;;13.73;5.20;;;12.60;62.60;;;;;;6199364;28;20034;-77
2021/10/11 05:03:17;;;;;;;11.60;5.28;;;12.60;62.60;;;;;;6193990;28;20050;-79
2021/10/11 05:06:17;;;;;;;8.82;5.03;;;12.60;62.60;;;;;;6188087;28;20034;-79
2021/10/11 05:09:18;;;;;;;12.93;5.43;;;12.60;62.60;;;;;;6195434;28;20339;-82
2021/10/11 05:12:19;;;;;;;9.55;4.53;;;12.70;62.80;;;;;;6188322;28;20049;-87
2021/10/11 05:15:20;;;;;;;11.50;5.20;;;12.70;62.80;;;;;;6200926;28;20042;-83
2021/10/11 05:18:22;;;;;;;10.70;5.07;;;12.80;62.80;;;;;;6201527;28;20043;-82
2021/10/11 05:21:23;;;;;;;6.88;4.32;;;12.80;62.80;;;;;;6204209;28;20094;-83
2021/10/11 05:24:25;;;;;;;12.15;5.47;;;12.90;62.80;;;;;;6208407;28;20043;-78
2021/10/11 05:27:26;;;;;;;12.13;5.50;;;12.90;62.70;;;;;;6208825;28;20061;-76
2021/10/11 05:30:27;;;;;;;11.85;4.85;;;12.90;62.60;;;;;;6210489;28;20134;-77
2021/10/11 05:33:28;;;;;;;11.70;5.43;;;12.90;62.60;;;;;;6207855;28;20212;-77
2021/10/11 05:36:29;;;;;;;10.85;4.90;;;12.90;62.60;;;;;;6197039;28;20092;-75
2021/10/11 05:39:30;;;;;;;11.68;4.70;;;12.80;62.60;;;;;;6189366;28;20301;-73
2021/10/11 05:42:31;;;;;;;13.15;5.35;;;12.80;62.70;;;;;;6194095;28;20035;-74
2021/10/11 05:45:38;;;;;;;10.27;5.15;;;12.80;62.70;;;;;;6197208;28;20072;-75
2021/10/11 05:48:38;;;;;;;10.52;5.35;;;12.70;62.70;;;;;;6196365;28;20038;-74
2021/10/11 05:51:40;;;;;;;13.73;5.55;;;12.70;62.70;;;;;;6199352;28;20537;-76
2021/10/11 05:54:41;;;;;;;10.57;5.93;;;12.70;62.70;;;;;;6198313;28;20101;-72
2021/10/11 05:57:42;;;;;;;13.32;5.80;;;12.70;62.60;;;;;;6197472;28;20470;-72
2021/10/11 06:00:43;;;;;;;13.23;5.28;;;12.80;62.60;;;;;;6197951;28;20042;-72
2021/10/11 06:03:43;;;;;;;12.18;5.35;;;12.70;62.60;;;;;;6196426;28;20058;-73
2021/10/11 06:06:44;;;;;;;10.15;5.05;;;12.70;62.80;;;;;;6198067;28;20541;-73
2021/10/11 06:09:45;;;;;;;12.85;5.80;;;12.70;62.80;;;;;;6180226;28;20034;-75
2021/10/11 06:12:46;;;;;;;9.95;5.43;;;12.70;62.80;;;;;;6198026;28;20073;-72
2021/10/11 06:15:47;;;;;;;7.43;4.22;;;12.70;62.80;;;;;;6197154;28;20042;-72
2021/10/11 06:18:48;;;;;;;14.77;4.97;;;12.70;62.80;;;;;;6189603;28;20049;-73
2021/10/11 06:21:49;;;;;;;12.10;5.05;;;12.60;62.70;;;;;;6199066;28;20034;-73
2021/10/11 06:24:50;;;;;;;8.93;4.95;;;12.60;62.80;;;;;;6197520;28;20092;-74
2021/10/11 06:27:51;;;;;;;8.80;4.80;;;12.60;62.80;;;;;;6197303;28;20445;-73
2021/10/11 06:30:51;;;;;;;17.48;5.70;;;12.60;62.80;;;;;;6204708;28;20115;-73
2021/10/11 06:33:52;;;;;;;19.42;5.80;;;12.50;62.80;;;;;;6198807;28;20053;-74
2021/10/11 06:36:53;;;;;;;21.88;5.18;;;12.50;62.80;;;;;;6199318;28;20034;-74
2021/10/11 06:39:54;;;;;;;10.95;4.97;;;12.50;62.80;;;;;;6200570;28;20124;-73
2021/10/11 06:42:55;;;;;;;20.65;5.13;;;12.60;62.80;;;;;;6202451;28;20430;-74
2021/10/11 06:45:56;;;;;;;9.20;4.50;;;12.60;62.80;;;;;;6200863;28;20038;-73
2021/10/11 06:48:57;;;;;;;10.10;4.75;;;12.60;62.80;;;;;;6185397;28;20048;-73
2021/10/11 06:51:58;;;;;;;11.90;4.70;;;12.60;62.70;;;;;;6202590;28;20030;-74
2021/10/11 06:54:59;;;;;;;8.70;4.10;;;12.60;62.60;;;;;;6184686;28;20162;-73
2021/10/11 06:57:59;;;;;;;12.05;5.28;;;12.70;62.70;;;;;;6201180;28;20414;-74
2021/10/11 07:01:00;;;;;;;16.27;5.05;;;12.70;62.40;;;;;;6201705;28;20078;-74
2021/10/11 07:04:01;;;;;;;8.55;4.75;;;12.80;62.30;;;;;;6201774;28;20149;-74
2021/10/11 07:07:03;;;;;;;11.07;5.97;;;12.80;62.10;;;;;;6202393;28;20133;-74
2021/10/11 07:10:04;;;;;;;10.32;4.97;;;12.90;62.10;;;;;;6201103;28;20062;-74
2021/10/11 07:13:05;;;;;;;15.35;5.50;;;13.00;62.00;;;;;;6201767;28;20034;-74
2021/10/11 07:16:06;;;;;;;12.35;5.45;;;13.00;62.80;;;;;;6200111;28;20042;-75
2021/10/11 07:19:11;;;;;;;11.88;5.70;;;13.00;61.90;;;;;;6184112;28;20038;-73
2021/10/11 07:22:16;;;;;;;13.43;6.07;;;13.10;62.00;;;;;;6180503;28;20046;-74
2021/10/11 07:25:16;;;;;;;14.55;5.70;;;13.10;61.90;;;;;;6200682;28;20129;-74
2021/10/11 07:28:17;;;;;;;14.05;5.63;;;13.20;61.80;;;;;;6202057;28;20034;-75
2021/10/11 07:31:18;;;;;;;16.83;6.25;;;13.10;61.60;;;;;;6201382;28;20493;-73
2021/10/11 07:34:19;;;;;;;12.13;5.13;;;13.20;61.60;;;;;;6200077;28;20046;-73
2021/10/11 07:37:21;;;;;;;12.82;4.75;;;13.30;61.80;;;;;;6199551;28;20053;-74
2021/10/11 07:40:22;;;;;;;11.98;5.55;;;13.20;61.40;;;;;;6198003;28;20038;-74
2021/10/11 07:43:22;;;;;;;12.07;5.53;;;13.30;61.20;;;;;;6182817;28;20147;-75
2021/10/11 07:46:25;;;;;;;11.00;5.32;;;13.40;61.10;;;;;;6197145;28;20031;-75
2021/10/11 07:49:26;;;;;;;15.70;5.63;;;13.40;60.90;;;;;;6190504;28;20112;-74
2021/10/11 07:52:27;;;;;;;15.75;5.65;;;13.50;60.60;;;;;;6179292;28;20090;-75
2021/10/11 07:55:28;;;;;;;11.90;5.82;;;13.50;60.10;;;;;;6199446;28;20129;-74
2021/10/11 07:58:28;;;;;;;17.17;6.18;;;13.60;59.90;;;;;;6199510;28;20034;-74
2021/10/11 08:01:29;;;;;;;13.43;6.40;;;13.60;59.70;;;;;;6196088;28;20042;-74
2021/10/11 08:04:30;;;;;;;11.73;6.05;;;13.70;60.40;;;;;;6198432;28;20046;-74
2021/10/11 08:07:32;;;;;;;13.80;6.38;;;13.80;59.70;;;;;;6199139;28;20424;-74
2021/10/11 08:10:34;;;;;;;12.88;6.05;;;13.90;59.50;;;;;;6179552;28;20035;-74
2021/10/11 08:13:34;;;;;;;17.58;7.40;;;14.00;59.30;;;;;;6200999;28;20409;-74
2021/10/11 08:16:35;;;;;;;13.00;6.18;;;14.00;59.20;;;;;;6200248;28;20042;-74
2021/10/11 08:19:37;;;;;;;18.67;7.22;;;14.10;59.00;;;;;;6179768;28;20034;-73
2021/10/11 08:22:38;;;;;;;17.13;7.80;;;14.20;58.90;;;;;;6199547;28;20519;-74
2021/10/11 08:25:39;;;;;;;15.85;6.63;;;14.40;58.90;;;;;;6199016;28;20042;-73
2021/10/11 08:28:40;;;;;;;13.50;6.82;;;14.50;58.50;;;;;;6198903;28;20483;-74
2021/10/11 08:31:41;;;;;;;17.05;6.97;;;14.60;58.30;;;;;;6190894;28;20375;-74
2021/10/11 08:34:41;;;;;;;11.68;5.82;;;14.70;58.00;;;;;;6200313;28;20038;-74
2021/10/11 08:37:42;;;;;;;14.00;6.40;;;14.90;57.80;;;;;;6182981;28;20042;-74
2021/10/11 08:40:46;;;;;;;15.65;6.75;;;15.10;57.50;;;;;;6198917;28;20042;-74
2021/10/11 08:43:47;;;;;;;12.80;6.47;;;15.20;57.20;;;;;;6198833;28;20042;-75
2021/10/11 08:46:48;;;;;;;11.05;5.68;;;15.40;56.80;;;;;;6179434;28;20108;-74
2021/10/11 08:49:50;;;;;;;14.65;5.60;;;15.50;56.60;;;;;;6198079;28;20034;-75
2021/10/11 08:52:51;;;;;;;15.18;6.30;;;15.40;56.50;;;;;;6199748;28;20121;-74
2021/10/11 08:55:52;;;;;;;11.68;5.75;;;15.50;56.60;;;;;;6198095;28;20459;-74
2021/10/11 08:58:53;;;;;;;12.95;6.32;;;15.50;56.50;;;;;;6192076;28;20038;-74
2021/10/11 09:02:05;;;;;;;18.98;6.65;;;15.50;56.50;;;;;;6200533;28;20029;-74
2021/10/11 09:05:06;;;;;;;16.30;6.00;;;15.50;56.30;;;;;;6197311;28;20042;-74
2021/10/11 09:08:12;;;;;;;16.38;6.30;;;15.60;56.20;;;;;;6195839;28;20073;-75
2021/10/11 09:11:14;;;;;;;18.38;5.93;;;15.50;55.80;;;;;;6196825;28;20046;-73
2021/10/11 09:14:23;;;;;;;13.90;6.20;;;15.50;55.60;;;;;;6198575;28;20341;-74
2021/10/11 09:17:30;;;;;;;12.70;5.60;;;15.50;55.70;;;;;;6195719;28;20058;-75
2021/10/11 09:20:31;;;;;;;10.95;5.65;;;15.50;55.60;;;;;;6198152;28;20041;-75
2021/10/11 09:23:32;;;;;;;13.88;5.90;;;15.50;55.50;;;;;;6197798;28;20038;-75
2021/10/11 09:26:47;;;;;;;14.30;6.53;;;15.60;55.50;;;;;;6196789;28;20515;-74
2021/10/11 09:29:48;;;;;;;16.23;6.47;;;15.60;55.40;;;;;;6197442;28;20410;-75
2021/10/11 09:32:49;;;;;;;13.77;5.47;;;15.60;55.30;;;;;;6197048;28;20038;-74
2021/10/11 09:35:52;;;;;;;11.50;5.30;;;15.70;55.20;;;;;;6196807;28;20026;-75
2021/10/11 09:39:00;;;;;;;19.98;6.43;;;15.80;55.00;;;;;;6180233;28;20157;-75
2021/10/11 09:42:03;;;;;;;11.70;5.60;;;16.00;54.60;;;;;;6196262;28;20463;-75
2021/10/11 09:45:05;;;;;;;10.60;5.78;;;16.10;54.40;;;;;;6199363;28;20046;-75
2021/10/11 09:48:08;;;;;;;14.05;5.60;;;16.20;54.00;;;;;;6204417;28;20050;-75
2021/10/11 09:51:09;;;;;;;14.98;6.63;;;16.40;54.40;;;;;;6202311;28;20130;-74
2021/10/11 09:54:11;;;;;;;18.15;6.70;;;16.50;53.50;;;;;;6200935;28;20375;-74
2021/10/11 09:57:12;;;;;;;12.40;6.05;;;16.70;52.90;;;;;;6197498;28;20114;-74
2021/10/11 10:00:14;;;;;;;14.30;7.05;;;16.80;52.60;;;;;;6196958;28;20123;-76
2021/10/11 10:03:15;;;;;;;13.20;5.32;;;16.90;52.10;;;;;;6180793;28;20104;-75
2021/10/11 10:06:16;;;;;;;16.67;7.88;;;16.90;51.80;;;;;;6195394;28;20133;-75
2021/10/11 10:09:19;;;;;;;14.65;7.13;;;17.00;51.90;;;;;;6197244;28;20034;-75
2021/10/11 10:12:20;;;;;;;11.77;7.03;;;17.20;51.80;;;;;;6198795;28;20146;-76
2021/10/11 10:15:37;;;;;;;19.88;9.35;;;17.50;51.60;;;;;;6200282;28;20069;-77
2021/10/11 10:18:40;;;;;;;21.52;8.35;;;17.80;51.10;;;;;;6176392;28;20041;-76
2021/10/11 10:21:41;;;;;;;18.55;7.90;;;18.20;50.20;;;;;;6178861;28;20038;-76
2021/10/11 10:24:43;;;;;;;16.13;7.35;;;18.40;49.50;;;;;;6147286;28;20039;-75
2021/10/11 10:27:47;;;;;;;12.27;6.38;;;18.70;49.20;;;;;;6174921;28;20043;-76
2021/10/11 10:31:00;;;;;;;30.67;14.38;;;18.90;48.80;;;;;;6202014;28;20473;-75
2021/10/11 10:34:15;;;;;;;56.97;20.38;;;19.10;48.10;;;;;;6201146;28;20049;-76
2021/10/11 10:37:16;;;;;;;37.83;14.73;;;19.30;47.70;;;;;;6197708;28;20090;-75
2021/10/11 10:40:19;;;;;;;24.00;10.70;;;19.50;46.70;;;;;;6199309;28;20153;-76
2021/10/11 10:43:20;;;;;;;14.65;7.47;;;19.50;46.80;;;;;;6199569;28;20185;-76
2021/10/11 10:46:22;;;;;;;20.25;9.38;;;19.60;46.70;;;;;;6197596;28;20049;-75
2021/10/11 10:49:30;;;;;;;16.08;7.45;;;19.70;46.00;;;;;;6197918;28;20050;-76
2021/10/11 10:52:30;;;;;;;17.90;8.00;;;19.80;45.60;;;;;;6196277;28;20054;-76
2021/10/11 10:55:34;;;;;;;10.90;5.93;;;19.90;45.80;;;;;;6198468;28;20363;-76
2021/10/11 10:58:35;;;;;;;17.25;9.18;;;20.10;45.50;;;;;;6197843;28;20038;-75
2021/10/11 11:01:36;;;;;;;9.48;5.43;;;20.30;45.30;;;;;;6187705;28;20034;-76
2021/10/11 11:04:38;;;;;;;10.07;5.07;;;20.50;44.80;;;;;;6208331;28;20478;-75
2021/10/11 11:07:40;;;;;;;11.18;5.65;;;20.80;44.20;;;;;;6198602;28;20136;-76
2021/10/11 11:10:41;;;;;;;10.05;5.53;;;21.00;43.70;;;;;;6196576;28;20061;-75
2021/10/11 11:13:43;;;;;;;12.60;5.93;;;21.30;43.50;;;;;;6197492;28;21759;-75
2021/10/11 11:16:51;;;;;;;13.52;5.28;;;21.50;43.10;;;;;;6197004;28;20501;-76
2021/10/11 11:19:52;;;;;;;10.80;5.95;;;21.90;42.00;;;;;;6191700;28;20031;-75
2021/10/11 11:22:54;;;;;;;13.45;6.22;;;22.10;41.50;;;;;;6198124;28;20034;-76
2021/10/11 11:26:00;;;;;;;13.18;5.38;;;22.30;41.10;;;;;;6196420;28;20036;-76
2021/10/11 11:29:01;;;;;;;9.60;4.95;;;22.60;40.10;;;;;;6195050;28;20038;-76
2021/10/11 11:32:02;;;;;;;12.75;6.35;;;22.80;39.80;;;;;;6179493;28;20030;-76
2021/10/11 11:35:03;;;;;;;12.95;5.40;;;23.20;38.70;;;;;;6196966;28;20039;-76
2021/10/11 11:38:07;;;;;;;10.02;5.45;;;23.40;38.20;;;;;;6196964;28;20113;-76
2021/10/11 11:41:09;;;;;;;9.45;4.85;;;23.60;37.30;;;;;;6196176;28;20125;-75
2021/10/11 11:44:10;;;;;;;11.90;6.13;;;23.90;36.50;;;;;;6196563;28;20042;-75
2021/10/11 11:47:11;;;;;;;10.25;5.20;;;24.10;35.80;;;;;;6195675;28;20065;-77
2021/10/11 11:50:17;;;;;;;10.40;4.97;;;24.30;35.30;;;;;;6194674;28;20040;-76
2021/10/11 11:53:21;;;;;;;9.25;5.40;;;24.50;34.80;;;;;;6193635;28;20471;-76
2021/10/11 11:56:24;;;;;;;9.95;4.95;;;24.70;34.40;;;;;;6177660;28;20049;-76
2021/10/11 11:59:27;;;;;;;9.18;4.82;;;25.10;33.80;;;;;;6171004;28;20053;-75
2021/10/11 12:02:27;;;;;;;11.65;5.18;;;25.60;33.50;;;;;;6198405;28;20042;-76
2021/10/11 12:05:29;;;;;;;10.07;4.72;;;25.90;32.90;;;;;;6196829;28;20383;-77
2021/10/11 12:08:31;;;;;;;8.82;4.38;;;26.30;32.40;;;;;;6198029;28;20118;-77
2021/10/11 12:11:32;;;;;;;12.48;4.65;;;26.70;31.90;;;;;;6196948;28;20100;-79
2021/10/11 12:14:33;;;;;;;7.70;4.15;;;26.90;31.50;;;;;;6190533;28;20038;-78
2021/10/11 12:17:37;;;;;;;7.13;3.88;;;27.20;30.80;;;;;;6196998;28;20117;-76
2021/10/11 12:20:50;;;;;;;9.35;4.07;;;27.50;29.60;;;;;;6196627;28;20034;-78
2021/10/11 12:23:53;;;;;;;4.80;3.13;;;27.70;29.00;;;;;;6196545;28;20054;-78
2021/10/11 12:26:59;;;;;;;4.95;3.13;;;28.10;28.60;;;;;;6190301;28;20432;-76
2021/10/11 12:30:01;;;;;;;5.63;3.25;;;28.40;28.10;;;;;;6197772;28;20036;-77
2021/10/11 12:33:11;;;;;;;6.78;3.10;;;28.50;27.50;;;;;;6199246;28;20038;-76
2021/10/11 12:36:12;;;;;;;6.60;3.60;;;28.00;27.70;;;;;;6197131;28;20038;-76
2021/10/11 12:39:13;;;;;;;6.68;3.80;;;27.10;28.10;;;;;;6198705;28;20039;-78
2021/10/11 12:42:16;;;;;;;6.90;3.13;;;26.30;28.80;;;;;;6198299;28;20089;-75
2021/10/11 12:45:18;;;;;;;6.18;3.00;;;25.80;29.20;;;;;;6197531;28;20126;-76
2021/10/11 12:48:19;;;;;;;6.40;3.40;;;25.40;29.70;;;;;;6198471;28;20096;-77
2021/10/11 12:51:35;;;;;;;6.88;3.78;;;25.00;29.90;;;;;;6197486;28;20089;-77
2021/10/11 12:54:37;;;;;;;6.50;3.70;;;24.50;30.60;;;;;;6197461;28;20069;-76
2021/10/11 12:57:44;;;;;;;6.43;3.42;;;24.00;31.20;;;;;;6197848;28;20375;-76
2021/10/11 13:00:44;;;;;;;6.43;3.15;;;23.50;31.80;;;;;;6197995;28;20371;-76
2021/10/11 13:03:45;;;;;;;6.47;3.60;;;23.10;32.30;;;;;;6195855;28;20057;-77
2021/10/11 13:06:48;;;;;;;4.97;3.30;;;22.70;32.70;;;;;;6196078;28;20982;-76
2021/10/11 13:09:49;;;;;;;7.20;3.40;;;22.40;33.20;;;;;;6196323;28;20094;-76
2021/10/11 13:12:50;;;;;;;4.53;3.00;;;22.10;33.80;;;;;;6192140;28;20058;-76
2021/10/11 13:15:50;;;;;;;5.28;3.17;;;21.90;34.20;;;;;;6196042;28;20092;-76
2021/10/11 13:18:51;;;;;;;12.27;4.00;;;21.70;34.80;;;;;;6179802;28;20242;-77
2021/10/11 13:21:52;;;;;;;9.63;3.92;;;21.50;35.40;;;;;;6197825;28;20133;-76
2021/10/11 13:24:53;;;;;;;6.28;3.38;;;21.40;35.60;;;;;;6197827;28;20038;-76
2021/10/11 13:27:54;;;;;;;5.72;3.58;;;21.20;35.80;;;;;;6180059;28;20069;-75
2021/10/11 14:30:44;;;;;;;10.02;4.18;;;20.10;39.20;;;;;;6054839;29;20378;-76
2021/10/11 16:00:19;;;;;;;10.35;3.85;;;19.00;42.50;;;;;;6190896;28;20038;-77
2021/10/11 16:06:37;;;;;;;6.28;3.67;;;18.90;43.00;;;;;;6172850;28;20031;-78
2021/10/11 16:09:38;;;;;;;9.13;4.00;;;18.80;43.30;;;;;;6192164;28;20043;-77
2021/10/11 16:13:04;;;;;;;9.27;4.40;;;18.70;43.50;;;;;;6173314;28;20035;-78
2021/10/11 16:16:06;;;;;;;7.82;4.00;;;18.70;43.70;;;;;;6170457;28;20065;-77
2021/10/11 16:19:07;;;;;;;7.75;4.35;;;18.60;44.00;;;;;;6196543;28;20049;-77
2021/10/11 16:22:08;;;;;;;7.50;4.22;;;18.50;44.20;;;;;;6197724;28;20408;-77
2021/10/11 16:25:09;;;;;;;9.02;4.35;;;18.50;44.50;;;;;;6196386;28;20057;-77
2021/10/11 16:28:10;;;;;;;8.60;4.13;;;18.40;44.60;;;;;;6195895;28;20057;-77
2021/10/11 16:31:18;;;;;;;9.13;4.85;;;18.40;44.80;;;;;;6269962;27;20391;-77
2021/10/11 16:34:23;;;;;;;7.45;3.83;;;18.30;45.10;;;;;;6263947;28;20033;-78
2021/10/11 16:37:24;;;;;;;8.95;4.40;;;18.30;45.20;;;;;;6283410;28;20498;-77
2021/10/11 16:40:25;;;;;;;8.82;4.63;;;18.20;45.00;;;;;;6264075;28;20025;-77
2021/10/11 16:43:26;;;;;;;10.27;4.03;;;18.20;45.10;;;;;;6265110;28;20492;-78
2021/10/11 16:46:27;;;;;;;10.90;4.25;;;18.10;45.10;;;;;;6279784;28;20109;-78
2021/10/11 16:49:27;;;;;;;10.93;4.60;;;18.10;45.00;;;;;;6258412;28;20044;-78
2021/10/11 16:52:28;;;;;;;7.80;4.10;;;18.10;45.10;;;;;;6280674;28;20098;-78
2021/10/11 16:55:30;;;;;;;12.98;4.30;;;18.00;45.00;;;;;;6281603;28;20473;-78
2021/10/11 16:58:32;;;;;;;6.78;4.13;;;18.00;45.00;;;;;;6265638;28;20343;-78
2021/10/11 17:01:33;;;;;;;9.10;4.10;;;17.90;45.00;;;;;;6264393;28;20048;-76
2021/10/11 17:04:34;;;;;;;17.20;4.15;;;17.90;44.90;;;;;;6264036;28;20059;-77
2021/10/11 17:07:36;;;;;;;8.73;4.10;;;17.90;44.90;;;;;;6275898;28;20056;-78
2021/10/11 17:10:38;;;;;;;11.60;4.13;;;17.90;44.90;;;;;;6264326;28;20504;-77
2021/10/11 17:13:39;;;;;;;9.15;4.47;;;17.90;44.80;;;;;;6262570;28;20037;-83
2021/10/11 17:16:40;;;;;;;7.82;4.07;;;17.90;44.90;;;;;;6263347;28;20045;-76
2021/10/11 17:19:41;;;;;;;7.07;4.07;;;17.90;45.00;;;;;;6264192;28;20037;-75
2021/10/11 17:22:46;;;;;;;11.15;4.47;;;17.80;45.10;;;;;;6270775;28;20037;-76
2021/10/11 17:25:50;;;;;;;;;;;17.80;45.50;;;;;;6291398;28;20033;-75
2021/10/11 17:28:52;;;;;;;8.52;4.18;;;17.80;45.60;;;;;;6263058;28;19930;-75
2021/10/11 17:31:53;;;;;;;7.90;4.10;;;17.80;45.70;;;;;;6264004;28;20041;-75
2021/10/11 17:34:54;;;;;;;11.18;4.40;;;17.70;45.80;;;;;;6264239;28;20057;-75
2021/10/11 17:37:55;;;;;;;12.63;4.15;;;17.70;46.10;;;;;;6259219;28;20123;-75
2021/10/11 17:40:56;;;;;;;6.78;4.50;;;17.70;46.30;;;;;;6269814;28;20040;-75
2021/10/11 17:43:57;;;;;;;12.18;4.95;;;17.70;46.50;;;;;;6245894;28;20046;-75
2021/10/11 17:46:58;;;;;;;10.75;4.57;;;17.70;46.80;;;;;;6243422;28;20052;-75
2021/10/11 17:50:00;;;;;;;10.27;4.57;;;17.70;46.90;;;;;;6253999;28;20041;-75
2021/10/11 17:53:01;;;;;;;8.50;4.22;;;17.60;47.20;;;;;;6246693;28;20030;-76
2021/10/11 17:56:03;;;;;;;9.52;4.40;;;17.70;47.30;;;;;;6227936;28;20053;-77
2021/10/11 17:59:06;;;;;;;7.05;3.90;;;17.70;47.40;;;;;;6224528;28;20047;-75
2021/10/11 18:02:07;;;;;;;8.50;4.85;;;17.60;47.60;;;;;;6209181;28;20037;-76
2021/10/11 18:05:09;;;;;;;12.05;5.07;;;17.60;47.80;;;;;;6231010;28;20358;-76
2021/10/11 18:08:10;;;;;;;11.32;4.63;;;17.60;48.00;;;;;;6235740;28;20037;-76